DLH1MK EDDS-ENTC
Flight info
| Callsign | DLH1MK |
|---|---|
| Flight time | N/A |
| Altitude | 37000 |
| Route | OKIBA4H OKIBA N851 RIMKI Z99 LOHRE DCT MASEK DCT ELNAT/N0439F360 DCT ALASA DCT ESOSI/N0437F370 DCT SOMUB DCT PENNO DCT ATWEG |
| Aircraft | A320/M-SDE3FGHIRWY/LB1 |
Departure
| Time | 2026-05-01 14:30 |
|---|---|
| Airport | Stuttgart Airport (EDDS) |
Arrival
| Time | N/A |
|---|---|
| Airport | Tromsø Airport (ENTC) |
| Time | Latitude | Longitude | Altitude | Speed | Heading |
|---|---|---|---|---|---|
| 2026-05-01 13:51 | 48.68847 | 9.19226 | 1286 ft | 0 kts | 342° |
| 2026-05-01 14:17 | 48.68833 | 9.19232 | 1290 ft | 4 kts | 346° |
| 2026-05-01 14:17 | 48.68806 | 9.19239 | 1287 ft | 4 kts | 0° |
| 2026-05-01 14:17 | 48.68790 | 9.19237 | 1286 ft | 4 kts | 21° |
| 2026-05-01 14:17 | 48.68774 | 9.19220 | 1290 ft | 2 kts | 72° |
| 2026-05-01 14:18 | 48.68774 | 9.19218 | 1289 ft | 1 kts | 73° |
| 2026-05-01 14:20 | 48.68775 | 9.19226 | 1288 ft | 3 kts | 75° |
| 2026-05-01 14:20 | 48.68720 | 9.19273 | 1287 ft | 0 kts | 165° |
| 2026-05-01 14:21 | 48.68719 | 9.19274 | 1287 ft | 2 kts | 165° |
| 2026-05-01 14:21 | 48.68671 | 9.19296 | 1289 ft | 9 kts | 154° |
| 2026-05-01 14:21 | 48.68670 | 9.19387 | 1285 ft | 12 kts | 75° |
| 2026-05-01 14:22 | 48.68724 | 9.19675 | 1285 ft | 17 kts | 73° |
| 2026-05-01 14:22 | 48.68757 | 9.19850 | 1285 ft | 18 kts | 74° |
| 2026-05-01 14:22 | 48.68720 | 9.19971 | 1287 ft | 4 kts | 161° |
| 2026-05-01 14:22 | 48.68716 | 9.19972 | 1287 ft | 0 kts | 163° |
| 2026-05-01 14:23 | 48.68716 | 9.19973 | 1287 ft | 0 kts | 163° |
| 2026-05-01 14:26 | 48.68662 | 9.19995 | 1286 ft | 0 kts | 164° |
| 2026-05-01 14:28 | 48.68635 | 9.20007 | 1290 ft | 10 kts | 164° |
| 2026-05-01 14:28 | 48.68590 | 9.20101 | 1285 ft | 13 kts | 75° |
| 2026-05-01 14:28 | 48.68615 | 9.20235 | 1285 ft | 12 kts | 74° |
| 2026-05-01 14:28 | 48.68640 | 9.20367 | 1285 ft | 14 kts | 74° |
| 2026-05-01 14:29 | 48.68652 | 9.20427 | 1287 ft | 0 kts | 74° |
| 2026-05-01 14:30 | 48.68909 | 9.21776 | 1290 ft | 129 kts | 74° |
| 2026-05-01 14:30 | 48.69190 | 9.23306 | 1399 ft | 165 kts | 76° |
| 2026-05-01 14:30 | 48.69472 | 9.24988 | 2065 ft | 167 kts | 77° |
| 2026-05-01 14:31 | 48.70126 | 9.28602 | 3018 ft | 192 kts | 76° |
| 2026-05-01 14:31 | 48.70497 | 9.30581 | 3532 ft | 199 kts | 77° |
| 2026-05-01 14:31 | 48.70903 | 9.32677 | 3994 ft | 216 kts | 76° |
| 2026-05-01 14:31 | 48.71342 | 9.34935 | 4558 ft | 231 kts | 76° |
| 2026-05-01 14:32 | 48.71812 | 9.37400 | 4898 ft | 255 kts | 77° |
| 2026-05-01 14:32 | 48.72307 | 9.40020 | 4978 ft | 261 kts | 77° |
| 2026-05-01 14:32 | 48.72820 | 9.42697 | 5503 ft | 266 kts | 76° |
| 2026-05-01 14:32 | 48.73344 | 9.45399 | 6377 ft | 270 kts | 75° |
| 2026-05-01 14:33 | 48.73908 | 9.48135 | 7195 ft | 275 kts | 69° |
| 2026-05-01 14:33 | 48.74993 | 9.50557 | 7969 ft | 284 kts | 45° |
| 2026-05-01 14:33 | 48.76682 | 9.52157 | 8741 ft | 292 kts | 20° |
| 2026-05-01 14:33 | 48.78709 | 9.52585 | 9479 ft | 300 kts | 358° |
| 2026-05-01 14:34 | 48.80800 | 9.52353 | 10299 ft | 303 kts | 357° |
| 2026-05-01 14:34 | 48.82920 | 9.52100 | 10707 ft | 320 kts | 357° |
| 2026-05-01 14:34 | 48.85221 | 9.51827 | 10945 ft | 342 kts | 357° |
| 2026-05-01 14:34 | 48.87639 | 9.51545 | 11430 ft | 353 kts | 356° |
| 2026-05-01 14:35 | 48.90102 | 9.51263 | 12153 ft | 355 kts | 356° |
| 2026-05-01 14:35 | 48.92573 | 9.50985 | 12901 ft | 357 kts | 357° |
| 2026-05-01 14:35 | 48.95052 | 9.50517 | 13597 ft | 362 kts | 349° |
| 2026-05-01 14:35 | 48.97456 | 9.49316 | 14278 ft | 367 kts | 337° |
| 2026-05-01 14:36 | 48.99764 | 9.47624 | 14867 ft | 370 kts | 335° |
| 2026-05-01 14:36 | 49.02082 | 9.45908 | 15516 ft | 372 kts | 335° |
| 2026-05-01 14:36 | 49.04427 | 9.44176 | 16113 ft | 375 kts | 335° |
| 2026-05-01 14:36 | 49.06784 | 9.42440 | 16731 ft | 378 kts | 335° |
| 2026-05-01 14:37 | 49.09165 | 9.40690 | 17306 ft | 382 kts | 336° |
| 2026-05-01 14:37 | 49.11565 | 9.38927 | 17906 ft | 384 kts | 336° |
| 2026-05-01 14:37 | 49.13983 | 9.37151 | 18479 ft | 387 kts | 335° |
| 2026-05-01 14:37 | 49.16413 | 9.35363 | 19013 ft | 389 kts | 335° |
| 2026-05-01 14:38 | 49.18837 | 9.33582 | 19486 ft | 392 kts | 336° |
| 2026-05-01 14:38 | 49.21401 | 9.32134 | 19929 ft | 394 kts | 347° |
| 2026-05-01 14:38 | 49.24100 | 9.31415 | 20428 ft | 394 kts | 358° |
| 2026-05-01 14:38 | 49.26849 | 9.31200 | 20941 ft | 395 kts | 359° |
| 2026-05-01 14:39 | 49.29599 | 9.30995 | 21439 ft | 397 kts | 359° |
| 2026-05-01 14:39 | 49.32369 | 9.30781 | 21941 ft | 399 kts | 358° |
| 2026-05-01 14:39 | 49.35152 | 9.30601 | 22432 ft | 400 kts | 2° |
| 2026-05-01 14:39 | 49.37931 | 9.30893 | 22896 ft | 401 kts | 7° |
| 2026-05-01 14:40 | 49.40720 | 9.31303 | 23359 ft | 403 kts | 7° |
| 2026-05-01 14:40 | 49.43516 | 9.31717 | 23799 ft | 405 kts | 7° |
| 2026-05-01 14:40 | 49.46293 | 9.32133 | 24198 ft | 407 kts | 7° |
| 2026-05-01 14:40 | 49.49117 | 9.32555 | 24585 ft | 408 kts | 6° |
| 2026-05-01 14:41 | 49.51954 | 9.32975 | 24947 ft | 411 kts | 7° |
| 2026-05-01 14:41 | 49.54801 | 9.33392 | 25333 ft | 412 kts | 7° |
| 2026-05-01 14:41 | 49.57661 | 9.33812 | 25686 ft | 414 kts | 6° |
| 2026-05-01 14:41 | 49.60535 | 9.34241 | 26027 ft | 416 kts | 6° |